createdAt,value
2018-11-25T00:01:33.176Z,17.23
2018-11-25T00:04:15.119Z,17.75
2018-11-25T00:06:56.846Z,18.12
2018-11-25T00:09:38.778Z,17.02
2018-11-25T00:12:20.511Z,17.30
2018-11-25T00:15:02.602Z,17.15
2018-11-25T00:17:45.914Z,16.82
2018-11-25T00:20:28.103Z,18.32
2018-11-25T00:23:11.204Z,16.73
2018-11-25T00:25:54.150Z,17.62
2018-11-25T00:28:36.547Z,16.77
2018-11-25T00:31:18.571Z,17.70
2018-11-25T00:34:00.642Z,17.55
2018-11-25T00:36:42.492Z,16.82
2018-11-25T00:39:24.161Z,15.40
2018-11-25T00:42:06.437Z,16.37
2018-11-25T00:44:48.647Z,16.82
2018-11-25T00:47:31.298Z,16.80
2018-11-25T00:50:14.116Z,16.00
2018-11-25T00:52:55.845Z,15.95
2018-11-25T00:55:37.586Z,15.58
2018-11-25T00:58:19.578Z,15.55
2018-11-25T01:01:01.995Z,14.55
2018-11-25T01:03:44.235Z,14.90
2018-11-25T01:06:25.975Z,14.95
2018-11-25T01:09:09.793Z,14.98
2018-11-25T01:11:52.065Z,16.10
2018-11-25T01:14:34.140Z,14.38
2018-11-25T01:17:15.962Z,15.18
2018-11-25T01:19:57.839Z,13.60
2018-11-25T01:22:39.725Z,14.43
2018-11-25T01:25:21.626Z,15.28
2018-11-25T01:28:03.897Z,14.98
2018-11-25T01:30:45.786Z,13.60
2018-11-25T01:33:27.489Z,15.95
2018-11-25T01:36:09.410Z,15.20
2018-11-25T01:38:52.275Z,13.53
2018-11-25T01:41:34.135Z,15.13
2018-11-25T01:44:16.287Z,14.93
2018-11-25T01:46:58.354Z,15.55
2018-11-25T01:49:40.476Z,15.05
2018-11-25T01:52:22.944Z,14.87
2018-11-25T01:55:05.359Z,15.58
2018-11-25T01:57:47.653Z,15.18
2018-11-25T02:00:30.679Z,15.18
2018-11-25T02:03:13.519Z,15.00
2018-11-25T02:05:55.774Z,15.05
2018-11-25T02:08:39.874Z,15.20
2018-11-25T02:11:22.170Z,15.23
2018-11-25T02:14:03.982Z,16.02
2018-11-25T02:16:45.755Z,15.05
2018-11-25T02:19:28.461Z,14.78
2018-11-25T02:22:10.800Z,14.73
2018-11-25T02:24:53.037Z,15.63
2018-11-25T02:27:35.650Z,15.13
2018-11-25T02:30:18.641Z,15.58
2018-11-25T02:33:00.996Z,16.10
2018-11-25T02:35:43.654Z,16.90
2018-11-25T02:38:25.731Z,17.05
2018-11-25T02:41:07.415Z,16.52
2018-11-25T02:43:49.399Z,16.60
2018-11-25T02:46:31.543Z,16.82
2018-11-25T02:49:13.236Z,16.20
2018-11-25T02:51:55.222Z,15.60
2018-11-25T02:54:37.220Z,16.90
2018-11-25T02:57:24.440Z,17.77
2018-11-25T03:00:07.124Z,17.07
2018-11-25T03:02:49.452Z,17.73
2018-11-25T03:05:32.349Z,16.87
2018-11-25T03:08:14.904Z,16.30
2018-11-25T03:10:56.915Z,15.93
2018-11-25T03:13:39.486Z,17.07
2018-11-25T03:16:21.267Z,17.20
2018-11-25T03:19:03.614Z,17.15
2018-11-25T03:21:45.507Z,17.65
2018-11-25T03:24:27.596Z,21.15
2018-11-25T03:27:09.686Z,16.10
2018-11-25T03:29:51.723Z,17.27
2018-11-25T03:32:33.403Z,16.50
2018-11-25T03:35:15.625Z,16.73
2018-11-25T03:37:57.615Z,15.98
2018-11-25T03:40:39.298Z,16.45
2018-11-25T03:43:21.834Z,15.40
2018-11-25T03:46:03.592Z,15.95
2018-11-25T03:48:45.446Z,14.23
2018-11-25T03:51:27.280Z,14.07
2018-11-25T03:54:09.302Z,15.43
2018-11-25T03:56:51.044Z,15.32
2018-11-25T03:59:34.375Z,15.23
2018-11-25T04:02:16.166Z,15.58
2018-11-25T04:04:58.818Z,15.98
2018-11-25T04:07:40.878Z,15.48
2018-11-25T04:10:23.288Z,14.87
2018-11-25T04:13:06.140Z,17.00
2018-11-25T04:15:49.267Z,16.20
2018-11-25T04:18:32.150Z,16.42
2018-11-25T04:21:15.868Z,15.50
2018-11-25T04:23:58.232Z,16.02
2018-11-25T04:26:40.278Z,15.95
2018-11-25T04:29:22.214Z,16.97
2018-11-25T04:32:04.792Z,15.40
2018-11-25T04:34:47.223Z,15.03
2018-11-25T04:37:28.886Z,16.52
2018-11-25T04:40:13.810Z,15.38
2018-11-25T04:42:55.761Z,16.07
2018-11-25T04:45:38.319Z,15.28
2018-11-25T04:48:20.203Z,15.75
2018-11-25T04:51:01.715Z,15.00
2018-11-25T04:53:44.128Z,16.12
2018-11-25T04:56:26.079Z,15.38
2018-11-25T04:59:08.946Z,16.05
2018-11-25T05:01:51.192Z,15.75
2018-11-25T05:04:33.799Z,16.90
2018-11-25T05:07:15.254Z,15.85
2018-11-25T05:09:57.355Z,16.32
2018-11-25T05:12:40.027Z,16.27
2018-11-25T05:15:22.796Z,16.75
2018-11-25T05:18:04.619Z,17.27
2018-11-25T05:20:46.781Z,15.00
2018-11-25T05:23:28.517Z,15.05
2018-11-25T05:26:11.127Z,14.90
2018-11-25T05:28:53.909Z,14.83
2018-11-25T05:31:35.705Z,15.03
2018-11-25T05:34:17.785Z,13.55
2018-11-25T05:36:59.556Z,14.98
2018-11-25T05:39:42.200Z,15.05
2018-11-25T05:42:25.181Z,14.40
2018-11-25T05:45:13.886Z,15.43
2018-11-25T05:47:55.927Z,15.45
2018-11-25T05:50:37.707Z,14.87
2018-11-25T05:53:19.709Z,15.72
2018-11-25T05:56:01.840Z,14.98
2018-11-25T05:58:44.048Z,16.75
2018-11-25T06:01:26.268Z,15.93
2018-11-25T06:04:08.471Z,15.53
2018-11-25T06:06:50.988Z,15.93
2018-11-25T06:09:32.683Z,15.32
2018-11-25T06:12:14.622Z,15.20
2018-11-25T06:14:56.366Z,15.45
2018-11-25T06:17:38.816Z,16.15
2018-11-25T06:20:20.696Z,16.87
2018-11-25T06:23:03.118Z,16.67
2018-11-25T06:25:45.422Z,15.93
2018-11-25T06:28:27.521Z,16.17
2018-11-25T06:31:09.629Z,16.15
2018-11-25T06:33:51.756Z,16.10
2018-11-25T06:36:33.975Z,16.73
2018-11-25T06:39:16.013Z,16.10
2018-11-25T06:41:58.456Z,18.07
2018-11-25T06:44:41.042Z,17.10
2018-11-25T06:47:22.829Z,16.95
2018-11-25T06:50:06.879Z,16.37
2018-11-25T06:52:49.259Z,15.83
2018-11-25T06:55:31.460Z,16.10
2018-11-25T06:58:13.695Z,15.35
2018-11-25T07:00:55.575Z,16.23
2018-11-25T07:03:37.536Z,15.13
2018-11-25T07:06:19.583Z,16.25
2018-11-25T07:09:01.253Z,15.98
2018-11-25T07:11:43.045Z,17.15
2018-11-25T07:14:25.261Z,15.72
2018-11-25T07:17:14.124Z,15.63
2018-11-25T07:19:56.106Z,15.60
2018-11-25T07:22:38.683Z,16.52
2018-11-25T07:25:22.235Z,16.20
2018-11-25T07:28:18.079Z,16.07
2018-11-25T07:30:46.911Z,15.83
2018-11-25T07:33:28.921Z,16.20
2018-11-25T07:36:10.835Z,15.98
2018-11-25T07:38:53.000Z,16.37
2018-11-25T07:41:35.320Z,16.57
2018-11-25T07:44:17.211Z,16.82
2018-11-25T07:46:59.811Z,16.25
2018-11-25T07:49:41.633Z,16.93
2018-11-25T07:52:24.236Z,16.20
2018-11-25T07:55:10.723Z,16.52
2018-11-25T07:57:55.315Z,16.32
2018-11-25T08:00:38.359Z,19.23
2018-11-25T08:03:20.100Z,18.62
2018-11-25T08:06:02.376Z,17.90
2018-11-25T08:08:45.622Z,17.50
2018-11-25T08:11:27.496Z,17.60
2018-11-25T08:14:09.593Z,18.60
2018-11-25T08:16:51.354Z,16.65
2018-11-25T08:19:33.424Z,16.80
2018-11-25T08:22:15.838Z,18.73
2018-11-25T08:24:57.584Z,17.82
2018-11-25T08:27:39.690Z,17.60
2018-11-25T08:30:23.150Z,17.23
2018-11-25T08:33:05.794Z,18.00
2018-11-25T08:35:47.655Z,18.48
2018-11-25T08:38:29.479Z,16.70
2018-11-25T08:41:11.590Z,17.17
2018-11-25T08:43:54.683Z,17.82
2018-11-25T08:46:36.924Z,16.75
2018-11-25T08:49:18.711Z,17.87
2018-11-25T08:52:00.922Z,19.07
2018-11-25T08:54:47.043Z,19.45
2018-11-25T08:57:29.120Z,19.57
2018-11-25T09:00:13.106Z,18.60
2018-11-25T09:02:56.433Z,18.52
2018-11-25T09:05:38.934Z,17.02
2018-11-25T09:08:22.719Z,18.35
2018-11-25T09:11:07.189Z,17.85
2018-11-25T09:13:49.454Z,17.87
2018-11-25T09:16:31.707Z,17.87
2018-11-25T09:19:14.731Z,18.23
2018-11-25T09:21:56.821Z,18.70
2018-11-25T09:24:39.288Z,18.07
2018-11-25T09:27:22.815Z,17.87
2018-11-25T09:30:07.422Z,18.00
2018-11-25T09:32:50.151Z,17.77
2018-11-25T09:35:32.797Z,18.25
2018-11-25T09:38:15.206Z,18.98
2018-11-25T09:40:59.800Z,18.92
2018-11-25T09:43:44.175Z,17.90
2018-11-25T09:46:26.377Z,18.82
2018-11-25T09:49:08.386Z,18.85
2018-11-25T09:51:51.195Z,18.67
2018-11-25T09:54:33.219Z,18.20
2018-11-25T09:57:15.405Z,18.73
2018-11-25T09:59:57.737Z,18.57
2018-11-25T10:02:41.340Z,18.95
2018-11-25T10:05:23.566Z,19.02
2018-11-25T10:08:05.395Z,19.80
2018-11-25T10:10:52.645Z,18.92
2018-11-25T10:13:29.791Z,19.05
2018-11-25T10:16:12.271Z,18.20
2018-11-25T10:18:54.593Z,17.20
2018-11-25T10:21:36.686Z,18.67
2018-11-25T10:24:18.665Z,18.02
2018-11-25T10:27:00.334Z,18.70
2018-11-25T10:29:42.014Z,18.42
2018-11-25T10:32:23.978Z,19.12
2018-11-25T10:35:08.501Z,18.55
2018-11-25T10:37:51.050Z,17.23
2018-11-25T10:40:33.634Z,18.30
2018-11-25T10:43:15.609Z,18.25
2018-11-25T10:45:57.671Z,18.52
2018-11-25T10:48:39.570Z,17.95
2018-11-25T10:51:21.493Z,17.98
2018-11-25T10:54:04.328Z,17.25
2018-11-25T10:56:46.091Z,16.95
2018-11-25T10:59:28.221Z,18.67
2018-11-25T11:02:16.135Z,17.35
2018-11-25T11:05:06.145Z,16.50
2018-11-25T11:07:48.403Z,16.42
2018-11-25T11:10:30.425Z,17.67
2018-11-25T11:13:12.733Z,17.23
2018-11-25T11:15:54.543Z,16.32
2018-11-25T11:18:37.330Z,16.55
2018-11-25T11:21:19.355Z,16.67
2018-11-25T11:24:01.154Z,16.17
2018-11-25T11:26:43.471Z,16.75
2018-11-25T11:29:25.174Z,18.37
2018-11-25T11:32:07.865Z,16.30
2018-11-25T11:34:49.761Z,16.30
2018-11-25T11:37:31.862Z,15.40
2018-11-25T11:40:15.805Z,15.93
2018-11-25T11:43:03.540Z,16.02
2018-11-25T11:45:45.403Z,15.93
2018-11-25T11:48:27.275Z,16.35
2018-11-25T11:51:09.035Z,17.92
2018-11-25T11:53:51.171Z,16.20
2018-11-25T11:56:39.929Z,17.80
2018-11-25T11:59:15.144Z,18.23
2018-11-25T12:01:57.636Z,18.10
2018-11-25T12:04:39.639Z,16.85
2018-11-25T12:07:22.220Z,17.42
2018-11-25T12:10:05.342Z,17.35
2018-11-25T12:12:48.119Z,16.90
2018-11-25T12:15:32.012Z,17.05
2018-11-25T12:18:14.232Z,16.45
2018-11-25T12:20:56.169Z,17.30
2018-11-25T12:23:40.897Z,16.65
2018-11-25T12:26:23.620Z,17.12
2018-11-25T12:29:06.172Z,18.07
2018-11-25T12:31:48.451Z,17.25
2018-11-25T12:34:30.698Z,17.48
2018-11-25T12:37:12.745Z,17.37
2018-11-25T12:39:54.583Z,17.20
2018-11-25T12:42:36.651Z,18.00
2018-11-25T12:45:19.856Z,18.52
2018-11-25T12:48:02.552Z,18.60
2018-11-25T12:50:45.292Z,17.95
2018-11-25T12:53:27.548Z,18.50
2018-11-25T12:56:09.903Z,17.73
2018-11-25T12:58:52.112Z,17.30
2018-11-25T13:01:33.603Z,18.37
2018-11-25T13:04:15.307Z,17.23
2018-11-25T13:06:57.636Z,17.53
2018-11-25T13:09:39.855Z,17.50
2018-11-25T13:12:21.494Z,18.57
2018-11-25T13:15:03.779Z,18.63
2018-11-25T13:17:45.381Z,17.10
2018-11-25T13:20:27.325Z,17.20
2018-11-25T13:23:09.283Z,17.03
2018-11-25T13:25:51.412Z,18.17
2018-11-25T13:28:33.543Z,17.32
2018-11-25T13:34:12.383Z,17.40
2018-11-25T13:36:54.715Z,17.60
2018-11-25T13:39:37.019Z,17.12
2018-11-25T13:42:18.688Z,18.65
2018-11-25T13:44:59.107Z,19.40
2018-11-25T13:47:41.369Z,17.10
2018-11-25T13:50:23.681Z,16.90
2018-11-25T13:53:06.604Z,17.60
2018-11-25T13:55:49.192Z,16.32
2018-11-25T13:58:31.616Z,16.80
2018-11-25T14:01:14.448Z,15.58
2018-11-25T14:03:56.503Z,16.82
2018-11-25T14:06:38.797Z,16.48
2018-11-25T14:09:21.893Z,16.57
2018-11-25T14:12:04.912Z,16.48
2018-11-25T14:14:47.100Z,16.37
2018-11-25T14:17:29.325Z,17.27
2018-11-25T14:20:11.702Z,16.75
2018-11-25T14:22:54.656Z,16.52
2018-11-25T14:25:37.766Z,16.82
2018-11-25T14:28:20.973Z,16.77
2018-11-25T14:31:04.144Z,15.75
2018-11-25T14:33:46.239Z,15.80
2018-11-25T14:36:28.545Z,16.67
2018-11-25T14:39:14.355Z,18.73
2018-11-25T14:41:56.486Z,15.70
2018-11-25T14:44:38.287Z,16.27
2018-11-25T14:47:20.214Z,16.70
2018-11-25T14:50:02.371Z,17.02
2018-11-25T14:52:46.094Z,17.32
2018-11-25T14:55:28.032Z,18.90
2018-11-25T14:58:10.323Z,18.15
2018-11-25T15:00:55.348Z,17.27
2018-11-25T15:03:37.445Z,18.17
2018-11-25T15:06:20.153Z,17.40
2018-11-25T15:09:06.116Z,16.67
2018-11-25T15:11:48.528Z,14.90
2018-11-25T15:14:30.215Z,14.50
2018-11-25T15:17:12.458Z,15.08
2018-11-25T15:19:55.282Z,14.95
2018-11-25T15:22:40.121Z,13.85
2018-11-25T15:25:25.674Z,14.53
2018-11-25T15:28:08.508Z,13.72
2018-11-25T15:30:50.884Z,13.43
2018-11-25T15:33:32.959Z,12.93
2018-11-25T15:36:14.714Z,12.40
2018-11-25T15:38:57.060Z,14.23
2018-11-25T15:41:39.627Z,13.62
2018-11-25T15:44:22.958Z,12.88
2018-11-25T15:47:08.249Z,12.45
2018-11-25T15:49:48.946Z,12.68
2018-11-25T15:52:32.222Z,13.85
2018-11-25T15:55:15.493Z,12.65
2018-11-25T15:57:57.505Z,13.62
2018-11-25T16:00:41.538Z,13.55
2018-11-25T16:03:24.169Z,14.10
2018-11-25T16:06:18.742Z,13.50
2018-11-25T16:09:02.328Z,12.40
2018-11-25T16:11:47.967Z,13.58
2018-11-25T16:14:29.909Z,12.73
2018-11-25T16:17:15.636Z,12.82
2018-11-25T16:19:59.310Z,12.88
2018-11-25T16:22:42.050Z,13.83
2018-11-25T16:25:41.143Z,13.22
2018-11-25T16:28:34.698Z,13.80
2018-11-25T16:31:16.914Z,13.90
2018-11-25T16:33:58.732Z,15.08
2018-11-25T16:36:41.278Z,15.00
2018-11-25T16:39:22.992Z,15.83
2018-11-25T16:42:07.494Z,15.98
2018-11-25T16:44:53.485Z,15.72
2018-11-25T16:47:35.950Z,19.12
2018-11-25T16:50:25.425Z,15.88
2018-11-25T16:53:07.664Z,16.35
2018-11-25T16:55:53.791Z,17.67
2018-11-25T16:58:36.508Z,16.67
2018-11-25T17:01:19.151Z,16.55
2018-11-25T17:04:01.661Z,17.80
2018-11-25T17:06:45.918Z,16.35
2018-11-25T17:09:27.902Z,17.80
2018-11-25T17:12:10.321Z,16.40
2018-11-25T17:14:52.799Z,16.65
2018-11-25T17:17:35.067Z,16.45
2018-11-25T17:20:17.503Z,16.73
2018-11-25T17:23:00.022Z,16.30
2018-11-25T17:25:42.288Z,17.85
2018-11-25T17:28:24.804Z,16.67
2018-11-25T17:31:07.473Z,17.45
2018-11-25T17:33:49.804Z,16.35
2018-11-25T17:36:33.057Z,17.50
2018-11-25T17:39:15.214Z,18.17
2018-11-25T17:41:57.716Z,19.02
2018-11-25T17:44:39.815Z,18.60
2018-11-25T17:47:21.917Z,18.45
2018-11-25T17:50:04.837Z,18.75
2018-11-25T17:52:48.055Z,18.45
2018-11-25T17:55:31.360Z,19.27
2018-11-25T17:58:13.698Z,18.82
2018-11-25T18:01:00.812Z,18.23
2018-11-25T18:03:43.530Z,19.75
2018-11-25T18:06:25.396Z,20.15
2018-11-25T18:09:11.030Z,18.07
2018-11-25T18:11:53.112Z,18.82
2018-11-25T18:14:35.009Z,18.77
2018-11-25T18:17:17.929Z,17.32
2018-11-25T18:19:59.854Z,18.40
2018-11-25T18:22:47.258Z,20.60
2018-11-25T18:25:30.927Z,20.27
2018-11-25T18:28:12.832Z,22.58
2018-11-25T18:30:55.106Z,23.67
2018-11-25T18:33:37.578Z,29.10
2018-11-25T18:36:19.521Z,25.55
2018-11-25T18:39:01.455Z,25.75
2018-11-25T18:41:43.544Z,24.23
2018-11-25T18:44:25.338Z,32.67
2018-11-25T18:47:07.994Z,31.48
2018-11-25T18:49:50.747Z,29.40
2018-11-25T18:52:32.947Z,27.67
2018-11-25T18:55:13.326Z,27.48
2018-11-25T18:57:55.272Z,25.25
2018-11-25T19:00:48.428Z,22.62
2018-11-25T19:03:30.509Z,22.35
2018-11-25T19:06:12.486Z,22.35
2018-11-25T19:08:54.322Z,23.47
2018-11-25T19:11:37.622Z,24.07
2018-11-25T19:14:19.557Z,24.18
2018-11-25T19:17:01.881Z,23.62
2018-11-25T19:19:44.150Z,24.75
2018-11-25T19:22:26.130Z,23.57
2018-11-25T19:25:10.177Z,25.95
2018-11-25T19:27:52.955Z,25.62
2018-11-25T19:30:35.036Z,20.97
2018-11-25T19:33:17.220Z,21.20
2018-11-25T19:35:59.222Z,20.65
2018-11-25T19:38:41.126Z,21.45
2018-11-25T19:41:23.069Z,21.33
2018-11-25T19:44:06.499Z,22.48
2018-11-25T19:46:48.552Z,20.90
2018-11-25T19:49:40.599Z,20.37
2018-11-25T19:52:22.943Z,22.30
2018-11-25T19:55:06.282Z,21.70
2018-11-25T19:57:48.188Z,21.93
2018-11-25T20:00:30.075Z,26.17
2018-11-25T20:03:12.042Z,22.35
2018-11-25T20:05:54.624Z,22.32
2018-11-25T20:08:36.578Z,24.30
2018-11-25T20:11:19.193Z,21.85
2018-11-25T20:14:01.135Z,22.85
2018-11-25T20:16:48.477Z,21.55
2018-11-25T20:19:30.852Z,22.02
2018-11-25T20:22:18.930Z,21.27
2018-11-25T20:25:02.213Z,20.92
2018-11-25T20:27:47.848Z,21.17
2018-11-25T20:30:32.528Z,23.00
2018-11-25T20:33:20.356Z,22.62
2018-11-25T20:36:02.630Z,23.47
2018-11-25T20:38:50.298Z,23.95
2018-11-25T20:41:32.236Z,23.90
2018-11-25T20:44:14.310Z,22.70
2018-11-25T20:47:02.931Z,25.57
2018-11-25T20:49:44.972Z,22.82
2018-11-25T20:52:32.133Z,21.82
2018-11-25T20:55:14.244Z,21.68
2018-11-25T20:57:56.549Z,25.50
2018-11-25T21:00:43.299Z,22.65
2018-11-25T21:03:25.573Z,25.50
2018-11-25T21:06:08.221Z,24.18
2018-11-25T21:08:51.966Z,25.50
2018-11-25T21:11:34.106Z,23.67
2018-11-25T21:14:15.979Z,24.50
2018-11-25T21:16:58.483Z,23.50
2018-11-25T21:19:40.365Z,24.27
2018-11-25T21:22:22.267Z,21.60
2018-11-25T21:25:04.214Z,23.27
2018-11-25T21:27:46.774Z,23.18
2018-11-25T21:30:28.530Z,22.32
2018-11-25T21:33:11.410Z,22.37
2018-11-25T21:35:53.411Z,22.10
2018-11-25T21:38:35.570Z,23.42
2018-11-25T21:41:17.521Z,22.70
2018-11-25T21:43:59.300Z,24.92
2018-11-25T21:46:43.370Z,22.87
2018-11-25T21:49:25.606Z,23.55
2018-11-25T21:52:08.080Z,23.57
2018-11-25T21:54:50.275Z,22.90
2018-11-25T21:57:33.710Z,22.65
2018-11-25T22:00:19.661Z,23.25
2018-11-25T22:03:01.725Z,22.58
2018-11-25T22:05:43.881Z,22.35
2018-11-25T22:08:26.243Z,21.75
2018-11-25T22:11:08.522Z,23.12
2018-11-25T22:13:50.434Z,23.80
2018-11-25T22:16:32.287Z,24.65
2018-11-25T22:19:14.130Z,23.42
2018-11-25T22:21:56.192Z,24.90
2018-11-25T22:24:38.301Z,24.18
2018-11-25T22:27:20.619Z,23.52
2018-11-25T22:30:06.070Z,22.62
2018-11-25T22:32:48.226Z,23.40
2018-11-25T22:35:30.052Z,22.73
2018-11-25T22:38:11.963Z,25.32
2018-11-25T22:40:54.080Z,23.65
2018-11-25T22:43:37.039Z,24.77
2018-11-25T22:46:19.538Z,23.83
2018-11-25T22:49:01.483Z,24.75
2018-11-25T22:51:43.385Z,23.32
2018-11-25T22:54:26.303Z,24.27
2018-11-25T22:57:08.547Z,24.18
2018-11-25T22:59:50.696Z,24.57
2018-11-25T23:02:32.458Z,23.85
2018-11-25T23:05:31.389Z,23.75
2018-11-25T23:08:13.652Z,23.62
2018-11-25T23:10:56.605Z,24.20
2018-11-25T23:13:39.022Z,23.60
2018-11-25T23:16:20.959Z,24.25
2018-11-25T23:19:02.735Z,23.35
2018-11-25T23:21:44.551Z,24.60
2018-11-25T23:24:26.500Z,24.18
2018-11-25T23:27:08.958Z,25.20
2018-11-25T23:29:50.959Z,25.70
2018-11-25T23:32:33.191Z,25.37
2018-11-25T23:35:25.562Z,27.17
2018-11-25T23:38:07.706Z,23.55
2018-11-25T23:40:50.179Z,25.60
2018-11-25T23:43:33.354Z,25.60
2018-11-25T23:46:15.234Z,24.55
2018-11-25T23:48:57.170Z,25.48
2018-11-25T23:51:39.288Z,25.68
2018-11-25T23:54:21.566Z,26.07
2018-11-25T23:57:03.444Z,30.13
2018-11-25T23:59:45.276Z,28.98
